Time;durP1;ratioP1;P1;durP2;ratioP2;P2;SDS_P1;SDS_P2;PMS_P1;PMS_P2;Temp;Humidity;BMP_temperature;BMP_pressure;BME280_temperature;BME280_humidity;BME280_pressure;Samples;Min_cycle;Max_cycle;Signal;HPM_P1;HPM_P2
2021/12/26 00:00:58;;;;;;;26.52;17.15;;;6.50;99.90;;;;;;5075483;28;20281;-68
2021/12/26 00:03:27;;;;;;;25.85;15.07;;;6.50;99.90;;;;;;5075462;28;20215;-68
2021/12/26 00:05:57;;;;;;;26.00;15.70;;;6.50;99.90;;;;;;5074937;28;20630;-68
2021/12/26 00:08:25;;;;;;;24.73;15.68;;;6.40;99.90;;;;;;5075369;28;20193;-68
2021/12/26 00:10:52;;;;;;;27.33;16.92;;;6.50;99.90;;;;;;5075190;28;20650;-68
2021/12/26 00:13:20;;;;;;;28.17;17.55;;;6.40;99.90;;;;;;5075068;28;20568;-68
2021/12/26 00:15:48;;;;;;;26.77;16.90;;;6.10;99.90;;;;;;5075144;28;20309;-68
2021/12/26 00:18:15;;;;;;;26.95;17.75;;;6.10;99.90;;;;;;5075316;28;20316;-68
2021/12/26 00:20:44;;;;;;;25.75;16.63;;;6.10;99.90;;;;;;5075929;28;20217;-68
2021/12/26 00:23:12;;;;;;;27.27;15.75;;;6.10;99.90;;;;;;5075381;28;20539;-68
2021/12/26 00:25:39;;;;;;;25.92;16.77;;;6.00;99.90;;;;;;5075356;28;20218;-68
2021/12/26 00:28:06;;;;;;;26.92;16.70;;;6.00;99.90;;;;;;5075018;28;20202;-68
2021/12/26 00:30:33;;;;;;;29.83;17.20;;;5.80;99.90;;;;;;5075375;28;20237;-68
2021/12/26 00:33:00;;;;;;;25.73;16.38;;;5.80;99.90;;;;;;5075117;28;20205;-68
2021/12/26 00:35:28;;;;;;;27.65;17.88;;;6.00;99.90;;;;;;5074358;28;20233;-68
2021/12/26 00:37:55;;;;;;;23.60;15.48;;;6.10;99.90;;;;;;5074799;28;20209;-68
2021/12/26 00:40:26;;;;;;;25.48;15.80;;;6.20;99.90;;;;;;5074613;28;20297;-68
2021/12/26 00:42:54;;;;;;;21.30;14.32;;;6.30;99.90;;;;;;5074942;28;20213;-68
2021/12/26 00:45:21;;;;;;;22.40;14.25;;;6.30;99.90;;;;;;5074159;28;20218;-68
2021/12/26 00:47:48;;;;;;;22.52;15.00;;;6.40;99.90;;;;;;5074646;28;20224;-68
2021/12/26 00:50:21;;;;;;;21.88;14.25;;;6.50;99.90;;;;;;5074743;28;20223;-68
2021/12/26 00:52:49;;;;;;;18.67;13.30;;;6.50;99.90;;;;;;5074441;28;20309;-68
2021/12/26 00:55:17;;;;;;;20.30;14.13;;;6.50;99.90;;;;;;5074507;28;20229;-68
2021/12/26 00:57:46;;;;;;;21.50;14.02;;;6.50;99.90;;;;;;5074833;28;20301;-68
2021/12/26 01:00:18;;;;;;;21.40;14.02;;;6.40;99.90;;;;;;5074561;28;20294;-68
2021/12/26 01:02:45;;;;;;;22.42;14.27;;;6.30;99.90;;;;;;5074190;28;20199;-68
2021/12/26 01:05:12;;;;;;;20.23;13.77;;;6.20;99.90;;;;;;5074005;28;20309;-68
2021/12/26 01:07:50;;;;;;;19.75;13.40;;;6.30;99.90;;;;;;5073826;28;20211;-68
2021/12/26 01:10:19;;;;;;;20.00;13.57;;;6.30;99.90;;;;;;5074137;28;20668;-68
2021/12/26 01:12:49;;;;;;;19.98;12.70;;;6.30;99.90;;;;;;5074160;28;20228;-69
2021/12/26 01:15:16;;;;;;;17.15;12.27;;;6.30;99.90;;;;;;5073602;28;20284;-68
2021/12/26 01:17:44;;;;;;;19.45;12.68;;;6.30;99.90;;;;;;5073314;28;20293;-68
2021/12/26 01:20:15;;;;;;;17.42;11.88;;;6.20;99.90;;;;;;5074196;28;20203;-68
2021/12/26 01:22:42;;;;;;;19.70;12.93;;;6.10;99.90;;;;;;5074125;28;20660;-68
2021/12/26 01:25:10;;;;;;;20.30;13.35;;;6.10;99.90;;;;;;5073763;28;20223;-68
2021/12/26 01:27:40;;;;;;;18.05;12.45;;;6.10;99.90;;;;;;5073968;28;20199;-68
2021/12/26 01:30:10;;;;;;;20.70;12.43;;;6.00;99.90;;;;;;5073989;28;20227;-68
2021/12/26 01:32:36;;;;;;;18.65;11.98;;;6.10;99.90;;;;;;5074031;28;20199;-68
2021/12/26 01:35:04;;;;;;;19.17;12.20;;;6.10;99.90;;;;;;5073536;28;20222;-68
2021/12/26 01:37:31;;;;;;;16.33;11.43;;;6.10;99.90;;;;;;5073704;28;20653;-68
2021/12/26 01:39:58;;;;;;;19.33;12.10;;;6.30;99.90;;;;;;5073518;28;20207;-69
2021/12/26 01:42:26;;;;;;;17.10;12.18;;;6.30;99.90;;;;;;5073476;28;20713;-68
2021/12/26 01:44:52;;;;;;;18.10;11.75;;;6.30;99.90;;;;;;5073273;28;20276;-68
2021/12/26 01:47:21;;;;;;;19.48;12.63;;;6.10;99.90;;;;;;5073736;28;20207;-68
2021/12/26 01:49:48;;;;;;;18.85;12.88;;;6.10;99.90;;;;;;5073784;28;20226;-68
2021/12/26 01:52:15;;;;;;;20.23;13.05;;;6.10;99.90;;;;;;5073733;28;20711;-68
2021/12/26 01:54:46;;;;;;;20.73;12.68;;;6.00;99.90;;;;;;5073665;28;20226;-68
2021/12/26 01:57:16;;;;;;;19.52;12.57;;;6.10;99.90;;;;;;5073969;28;20195;-68
2021/12/26 01:59:43;;;;;;;20.23;12.55;;;6.10;99.90;;;;;;5073768;28;20617;-68
2021/12/26 02:02:11;;;;;;;15.77;11.25;;;6.10;99.90;;;;;;5073748;28;20298;-68
2021/12/26 02:04:40;;;;;;;16.17;11.00;;;6.20;99.90;;;;;;5073249;28;20633;-68
2021/12/26 02:07:08;;;;;;;16.13;10.68;;;6.30;99.90;;;;;;5073315;28;20210;-68
2021/12/26 02:09:36;;;;;;;17.85;11.93;;;6.10;99.90;;;;;;5073591;28;20203;-68
2021/12/26 02:12:05;;;;;;;17.98;11.07;;;5.90;99.90;;;;;;5074031;28;20209;-68
2021/12/26 02:14:32;;;;;;;19.73;12.60;;;5.90;99.90;;;;;;5073328;28;20285;-68
2021/12/26 02:16:59;;;;;;;19.13;11.90;;;5.90;99.90;;;;;;5073595;28;20572;-68
2021/12/26 02:19:26;;;;;;;20.25;13.02;;;6.00;99.90;;;;;;5073500;28;20205;-68
2021/12/26 02:22:10;;;;;;;17.75;11.75;;;5.90;99.90;;;;;;5073812;28;20199;-68
2021/12/26 02:25:08;;;;;;;21.23;12.65;;;5.80;99.90;;;;;;5073600;28;20230;-68
2021/12/26 02:27:42;;;;;;;19.13;12.48;;;5.90;99.90;;;;;;5073271;28;20199;-68
2021/12/26 02:30:13;;;;;;;20.52;12.80;;;6.00;99.90;;;;;;5075376;28;20222;-68
2021/12/26 02:32:40;;;;;;;20.30;13.27;;;6.00;99.90;;;;;;5077335;28;20198;-68
2021/12/26 02:35:08;;;;;;;20.30;12.40;;;6.00;99.90;;;;;;5077055;28;20227;-68
2021/12/26 02:37:36;;;;;;;17.63;11.75;;;5.90;99.90;;;;;;5077119;28;20636;-68
2021/12/26 02:40:04;;;;;;;18.95;13.15;;;5.90;99.90;;;;;;5076897;28;20214;-68
2021/12/26 02:42:31;;;;;;;21.40;13.00;;;6.00;99.90;;;;;;5076972;28;20278;-68
2021/12/26 02:44:58;;;;;;;21.15;13.18;;;6.10;99.90;;;;;;5076938;28;20254;-68
2021/12/26 02:47:32;;;;;;;20.50;12.98;;;6.00;99.90;;;;;;5078040;28;20281;-68
2021/12/26 02:50:00;;;;;;;18.40;12.95;;;6.00;99.90;;;;;;5076478;28;20295;-68
2021/12/26 02:52:27;;;;;;;19.67;13.30;;;5.90;99.90;;;;;;5076778;28;20206;-68
2021/12/26 02:54:58;;;;;;;19.98;12.48;;;6.00;99.90;;;;;;5076274;28;20218;-68
2021/12/26 02:57:24;;;;;;;21.88;13.45;;;6.00;99.90;;;;;;5076604;28;20209;-68
2021/12/26 02:59:51;;;;;;;21.23;13.13;;;6.10;99.90;;;;;;5076666;28;20621;-68
2021/12/26 03:02:18;;;;;;;19.50;13.25;;;6.20;99.90;;;;;;5076477;28;20298;-68
2021/12/26 03:04:45;;;;;;;19.85;13.30;;;6.30;99.90;;;;;;5076256;28;20219;-68
2021/12/26 03:07:12;;;;;;;19.25;13.45;;;6.30;99.90;;;;;;5076435;28;20702;-68
2021/12/26 03:09:45;;;;;;;20.00;13.60;;;6.30;99.90;;;;;;5076336;28;20209;-68
2021/12/26 03:12:14;;;;;;;21.30;14.07;;;6.30;99.90;;;;;;5076407;28;20191;-68
2021/12/26 03:14:41;;;;;;;22.30;13.52;;;6.20;99.90;;;;;;5075998;28;20265;-68
2021/12/26 03:17:08;;;;;;;19.52;12.85;;;6.30;99.90;;;;;;5076350;28;20206;-68
2021/12/26 03:19:36;;;;;;;19.00;13.30;;;6.30;99.90;;;;;;5076292;28;20199;-68
2021/12/26 03:22:04;;;;;;;19.13;12.90;;;6.40;99.90;;;;;;5076568;28;20209;-68
2021/12/26 03:24:32;;;;;;;20.70;14.18;;;6.30;99.90;;;;;;5076033;28;20289;-68
2021/12/26 03:27:00;;;;;;;20.77;13.98;;;6.10;99.90;;;;;;5076240;28;20203;-68
2021/12/26 03:29:28;;;;;;;22.67;13.57;;;6.00;99.90;;;;;;5076180;28;20264;-68
2021/12/26 03:31:55;;;;;;;21.40;14.43;;;5.90;99.90;;;;;;5076094;28;20225;-68
2021/12/26 03:34:22;;;;;;;25.60;14.57;;;5.90;99.90;;;;;;5075736;28;20561;-68
2021/12/26 03:36:52;;;;;;;23.08;14.68;;;5.80;99.90;;;;;;5075956;28;20202;-68
2021/12/26 03:39:19;;;;;;;23.52;13.98;;;5.90;99.90;;;;;;5075997;28;20207;-68
2021/12/26 03:41:46;;;;;;;20.55;14.40;;;6.10;99.90;;;;;;5075029;28;20207;-68
2021/12/26 03:44:13;;;;;;;23.67;14.80;;;5.90;99.90;;;;;;5075986;28;20630;-68
2021/12/26 03:46:41;;;;;;;25.00;14.32;;;5.90;99.90;;;;;;5075712;28;20212;-68
2021/12/26 03:49:08;;;;;;;22.60;13.50;;;5.90;99.90;;;;;;5076065;28;20215;-68
2021/12/26 03:51:36;;;;;;;25.65;15.30;;;5.90;99.90;;;;;;5075527;28;20309;-68
2021/12/26 03:54:05;;;;;;;24.63;15.02;;;5.90;99.90;;;;;;5076026;28;20567;-68
2021/12/26 03:56:32;;;;;;;23.20;15.77;;;5.80;99.90;;;;;;5075559;28;20261;-68
2021/12/26 03:58:59;;;;;;;28.40;16.40;;;5.60;99.90;;;;;;5075834;28;20563;-68
2021/12/26 04:01:26;;;;;;;29.63;17.60;;;5.40;99.90;;;;;;5075705;28;20209;-68
2021/12/26 04:03:55;;;;;;;27.92;17.63;;;5.40;99.90;;;;;;5075894;28;20203;-68
2021/12/26 04:06:22;;;;;;;32.35;17.70;;;5.40;99.90;;;;;;5075159;28;20719;-68
2021/12/26 04:08:49;;;;;;;28.25;17.23;;;5.60;99.90;;;;;;5075613;28;20207;-68
2021/12/26 04:11:15;;;;;;;24.27;15.38;;;5.70;99.90;;;;;;5075570;28;20234;-68
2021/12/26 04:13:42;;;;;;;30.35;17.08;;;5.80;99.90;;;;;;5075359;28;20199;-68
2021/12/26 04:16:09;;;;;;;26.25;16.00;;;5.80;99.90;;;;;;5075081;28;20313;-68
2021/12/26 04:18:36;;;;;;;29.55;17.27;;;5.70;99.90;;;;;;5075540;28;20289;-68
2021/12/26 04:21:05;;;;;;;31.52;18.80;;;5.50;99.90;;;;;;5075154;28;20201;-68
2021/12/26 04:23:32;;;;;;;31.08;17.25;;;5.40;99.90;;;;;;5075460;28;20252;-68
2021/12/26 04:25:59;;;;;;;30.83;18.25;;;5.40;99.90;;;;;;5075299;28;20645;-68
2021/12/26 04:28:26;;;;;;;30.15;17.40;;;5.40;99.90;;;;;;5075355;28;20202;-68
2021/12/26 04:30:53;;;;;;;27.58;16.98;;;5.50;99.90;;;;;;5074996;28;20229;-68
2021/12/26 04:33:21;;;;;;;26.75;15.73;;;5.50;99.90;;;;;;5074871;28;20661;-68
2021/12/26 04:35:47;;;;;;;33.40;17.35;;;5.50;99.90;;;;;;5074854;28;20230;-68
2021/12/26 04:38:16;;;;;;;32.00;18.15;;;5.40;99.90;;;;;;5075017;28;20207;-68
2021/12/26 04:40:46;;;;;;;31.15;17.98;;;5.30;99.90;;;;;;5074777;28;20700;-68
2021/12/26 04:43:14;;;;;;;32.92;17.70;;;5.30;99.90;;;;;;5074726;28;20274;-68
2021/12/26 04:45:41;;;;;;;32.63;18.05;;;5.20;99.90;;;;;;5074786;28;20261;-68
2021/12/26 04:48:08;;;;;;;32.70;19.33;;;5.20;99.90;;;;;;5074768;28;20210;-68
2021/12/26 04:50:36;;;;;;;33.10;18.48;;;5.20;99.90;;;;;;5074356;28;20249;-68
2021/12/26 04:53:03;;;;;;;33.90;19.08;;;5.20;99.90;;;;;;5073501;28;20213;-68
2021/12/26 04:55:31;;;;;;;31.63;17.77;;;5.20;99.90;;;;;;5073800;28;20218;-68
2021/12/26 04:57:59;;;;;;;31.85;18.75;;;5.20;99.90;;;;;;5074263;28;20213;-68
2021/12/26 05:00:28;;;;;;;33.88;18.33;;;5.20;99.90;;;;;;5074170;28;20598;-68
2021/12/26 05:02:56;;;;;;;32.72;18.00;;;5.30;99.90;;;;;;5074019;28;20209;-68
2021/12/26 05:05:26;;;;;;;34.50;18.70;;;5.30;99.90;;;;;;5074172;28;20230;-68
2021/12/26 05:07:54;;;;;;;35.63;20.50;;;5.30;99.90;;;;;;5074456;28;20198;-68
2021/12/26 05:10:24;;;;;;;35.03;18.92;;;5.30;99.90;;;;;;5074192;28;20260;-68
2021/12/26 05:12:52;;;;;;;33.20;18.23;;;5.30;99.90;;;;;;5074323;28;20203;-68
2021/12/26 05:15:21;;;;;;;32.47;17.50;;;5.40;99.90;;;;;;5073959;28;20310;-68
2021/12/26 05:17:49;;;;;;;37.47;19.10;;;5.40;99.90;;;;;;5074322;28;20238;-68
2021/12/26 05:20:18;;;;;;;34.55;18.13;;;5.40;99.90;;;;;;5074247;28;20213;-68
2021/12/26 05:22:49;;;;;;;31.52;18.45;;;5.50;99.90;;;;;;5074087;28;20202;-68
2021/12/26 05:25:16;;;;;;;34.30;18.45;;;5.40;99.90;;;;;;5073859;28;20312;-68
2021/12/26 05:27:43;;;;;;;35.33;19.48;;;5.40;99.90;;;;;;5074695;28;20209;-68
2021/12/26 05:30:15;;;;;;;31.67;17.85;;;5.40;99.90;;;;;;5074126;28;20199;-68
2021/12/26 05:32:43;;;;;;;33.83;18.38;;;5.40;99.90;;;;;;5074051;28;20546;-68
2021/12/26 05:35:11;;;;;;;32.60;18.05;;;5.60;99.90;;;;;;5073698;28;20704;-68
2021/12/26 05:37:39;;;;;;;32.03;17.58;;;5.60;99.90;;;;;;5073970;28;20206;-68
2021/12/26 05:40:08;;;;;;;31.30;18.17;;;5.60;99.90;;;;;;5073556;28;20221;-68
2021/12/26 05:42:35;;;;;;;29.02;17.25;;;5.70;99.90;;;;;;5073938;28;20202;-68
2021/12/26 05:45:04;;;;;;;31.58;17.50;;;5.90;99.90;;;;;;5073714;28;20583;-68
2021/12/26 05:47:32;;;;;;;32.05;17.90;;;6.00;99.90;;;;;;5073759;28;20289;-68
2021/12/26 05:49:59;;;;;;;29.67;17.50;;;6.10;99.90;;;;;;5073826;28;20202;-68
2021/12/26 05:52:26;;;;;;;26.88;16.75;;;6.20;99.90;;;;;;5073597;28;20561;-68
2021/12/26 05:54:54;;;;;;;26.98;16.75;;;6.10;99.90;;;;;;5073316;28;20262;-68
2021/12/26 05:57:21;;;;;;;30.73;17.30;;;6.00;99.90;;;;;;5073713;28;20210;-68
2021/12/26 05:59:48;;;;;;;28.95;16.95;;;6.00;99.90;;;;;;5073365;28;20691;-68
2021/12/26 06:02:15;;;;;;;35.80;18.95;;;6.00;99.90;;;;;;5073600;28;20233;-68
2021/12/26 06:04:43;;;;;;;30.42;18.30;;;6.00;99.90;;;;;;5076300;28;20226;-68
2021/12/26 06:07:10;;;;;;;28.73;17.00;;;6.00;99.90;;;;;;5078043;28;20293;-68
2021/12/26 06:09:37;;;;;;;29.13;16.48;;;6.10;99.90;;;;;;5077637;28;20614;-68
2021/12/26 06:12:04;;;;;;;24.92;16.05;;;6.20;99.90;;;;;;5077534;28;20227;-68
2021/12/26 06:14:31;;;;;;;29.65;16.90;;;6.30;99.90;;;;;;5077205;28;20202;-68
2021/12/26 06:16:58;;;;;;;32.08;16.75;;;6.30;99.90;;;;;;5078469;28;20221;-68
2021/12/26 06:19:25;;;;;;;27.27;16.23;;;6.20;99.90;;;;;;5077503;28;20203;-68
2021/12/26 06:22:02;;;;;;;32.45;17.63;;;6.20;99.90;;;;;;5077500;28;20566;-68
2021/12/26 06:24:29;;;;;;;30.13;17.90;;;6.10;99.90;;;;;;5077283;28;20202;-68
2021/12/26 06:26:56;;;;;;;30.42;17.90;;;6.00;99.90;;;;;;5077357;28;20242;-68
2021/12/26 06:29:23;;;;;;;33.92;19.80;;;5.90;99.90;;;;;;5077469;28;20290;-68
2021/12/26 06:31:50;;;;;;;33.35;19.20;;;5.80;99.90;;;;;;5077299;28;20218;-68
2021/12/26 06:34:17;;;;;;;32.13;18.00;;;5.80;99.90;;;;;;5077281;28;20664;-68
2021/12/26 06:36:45;;;;;;;33.05;18.60;;;5.80;99.90;;;;;;5076719;28;20675;-68
2021/12/26 06:39:16;;;;;;;29.85;17.30;;;5.90;99.90;;;;;;5077144;28;20202;-68
2021/12/26 06:41:43;;;;;;;33.95;19.42;;;5.90;99.90;;;;;;5076961;28;20206;-68
2021/12/26 06:44:10;;;;;;;35.80;19.58;;;5.90;99.90;;;;;;5077131;28;20204;-68
2021/12/26 06:46:37;;;;;;;39.13;20.55;;;5.80;99.90;;;;;;5077032;28;20223;-68
2021/12/26 06:49:05;;;;;;;36.80;20.05;;;5.70;99.90;;;;;;5076824;28;20677;-68
2021/12/26 06:51:33;;;;;;;38.28;20.80;;;5.60;99.90;;;;;;5076887;28;20224;-68
2021/12/26 06:54:00;;;;;;;38.08;19.98;;;5.50;99.90;;;;;;5077263;28;20557;-68
2021/12/26 06:56:28;;;;;;;39.55;20.50;;;5.50;99.90;;;;;;5076825;28;20218;-68
2021/12/26 06:58:55;;;;;;;37.55;19.95;;;5.50;99.90;;;;;;5076946;28;20234;-68
2021/12/26 07:01:22;;;;;;;37.15;20.75;;;5.40;99.90;;;;;;5076807;28;20195;-68
2021/12/26 07:03:49;;;;;;;40.30;21.42;;;5.40;99.90;;;;;;5076888;28;20630;-68
2021/12/26 07:06:17;;;;;;;38.40;20.90;;;5.50;99.90;;;;;;5076594;28;20309;-68
2021/12/26 07:08:47;;;;;;;40.45;20.33;;;5.50;99.90;;;;;;5076638;28;20209;-68
2021/12/26 07:11:15;;;;;;;43.67;21.75;;;5.50;99.90;;;;;;5076510;28;20203;-68
2021/12/26 07:13:44;;;;;;;39.78;21.33;;;5.50;99.90;;;;;;5076509;28;20271;-68
2021/12/26 07:16:11;;;;;;;36.38;19.88;;;5.50;99.90;;;;;;5075638;28;20566;-68
2021/12/26 07:18:37;;;;;;;39.72;19.77;;;5.40;99.90;;;;;;5076437;28;20209;-68
2021/12/26 07:21:04;;;;;;;39.83;21.08;;;5.50;99.90;;;;;;5076390;28;20213;-68
2021/12/26 07:23:31;;;;;;;37.83;20.88;;;5.50;99.90;;;;;;5076194;28;20209;-68
2021/12/26 07:25:58;;;;;;;38.42;20.92;;;5.60;99.90;;;;;;5075740;28;20230;-68
2021/12/26 07:28:25;;;;;;;38.63;20.73;;;5.60;99.90;;;;;;5075890;28;20209;-68
2021/12/26 07:30:53;;;;;;;37.72;19.67;;;5.60;99.90;;;;;;5076106;28;20229;-68
2021/12/26 07:33:20;;;;;;;41.97;20.23;;;5.70;99.90;;;;;;5075922;28;20230;-68
2021/12/26 07:35:47;;;;;;;39.20;20.42;;;5.70;99.90;;;;;;5075603;28;20317;-68
2021/12/26 07:38:14;;;;;;;38.75;20.25;;;5.70;99.90;;;;;;5076076;28;20225;-68
2021/12/26 07:40:40;;;;;;;41.47;21.10;;;5.70;99.90;;;;;;5075677;28;20218;-68
2021/12/26 07:43:07;;;;;;;38.97;21.17;;;5.60;99.90;;;;;;5075566;28;20728;-68
2021/12/26 07:45:34;;;;;;;41.08;19.42;;;5.60;99.90;;;;;;5075601;28;20309;-68
2021/12/26 07:48:03;;;;;;;38.55;21.42;;;5.80;99.90;;;;;;5075528;28;20739;-68
2021/12/26 07:50:30;;;;;;;34.42;19.48;;;5.80;99.90;;;;;;5075972;28;20213;-68
2021/12/26 07:53:02;;;;;;;36.80;20.75;;;6.00;99.90;;;;;;5075474;28;20233;-68
2021/12/26 07:55:29;;;;;;;34.28;20.27;;;5.90;99.90;;;;;;5075673;28;20231;-68
2021/12/26 07:57:56;;;;;;;39.15;21.95;;;5.90;99.90;;;;;;5075325;28;20676;-68
2021/12/26 08:00:23;;;;;;;39.53;22.27;;;5.90;99.90;;;;;;5075529;28;20203;-68
2021/12/26 08:02:50;;;;;;;41.70;20.85;;;5.90;99.90;;;;;;5075447;28;20293;-68
2021/12/26 08:05:19;;;;;;;41.92;22.00;;;5.90;99.90;;;;;;5075020;28;20317;-68
2021/12/26 08:07:46;;;;;;;41.22;20.92;;;5.80;99.90;;;;;;5075374;28;20280;-68
2021/12/26 08:10:13;;;;;;;41.88;21.80;;;5.80;99.90;;;;;;5075347;28;20546;-68
2021/12/26 08:12:40;;;;;;;37.72;22.33;;;5.70;99.90;;;;;;5074833;28;20229;-68
2021/12/26 08:15:07;;;;;;;41.00;22.63;;;5.70;99.90;;;;;;5075006;28;20225;-68
2021/12/26 08:17:35;;;;;;;44.90;22.25;;;5.70;99.90;;;;;;5075197;28;20234;-68
2021/12/26 08:20:02;;;;;;;39.85;21.58;;;5.70;99.90;;;;;;5075010;28;20242;-68
2021/12/26 08:22:30;;;;;;;42.70;22.58;;;5.70;99.90;;;;;;5075020;28;20205;-68
2021/12/26 08:24:57;;;;;;;46.20;23.75;;;5.80;99.90;;;;;;5074826;28;20622;-68
2021/12/26 08:27:24;;;;;;;36.13;21.85;;;5.90;99.90;;;;;;5074794;28;20297;-68
2021/12/26 08:29:50;;;;;;;41.65;22.15;;;6.10;99.90;;;;;;5074979;28;20568;-68
2021/12/26 08:32:18;;;;;;;36.70;22.08;;;6.30;99.90;;;;;;5074689;28;20309;-68
2021/12/26 08:34:46;;;;;;;35.78;21.25;;;6.50;99.90;;;;;;5074519;28;20226;-68
2021/12/26 08:37:14;;;;;;;34.92;21.13;;;6.60;99.90;;;;;;5074775;28;20199;-68
2021/12/26 08:39:44;;;;;;;36.20;21.05;;;6.80;99.90;;;;;;5074366;28;20289;-68
2021/12/26 08:42:13;;;;;;;34.47;20.58;;;6.70;99.90;;;;;;5074920;28;20556;-68
2021/12/26 08:44:40;;;;;;;30.73;19.27;;;6.70;99.90;;;;;;5074223;28;20272;-68
2021/12/26 08:47:09;;;;;;;31.38;18.45;;;6.70;99.90;;;;;;5074533;28;20206;-68
2021/12/26 08:49:36;;;;;;;31.40;19.65;;;6.90;99.90;;;;;;5074294;28;20663;-68
2021/12/26 08:52:03;;;;;;;32.65;21.00;;;6.90;99.90;;;;;;5074617;28;20222;-68
2021/12/26 08:54:33;;;;;;;36.33;20.30;;;6.80;99.90;;;;;;5074708;28;20592;-68
2021/12/26 08:57:01;;;;;;;31.98;19.98;;;6.70;99.90;;;;;;5074798;28;20207;-68
2021/12/26 08:59:30;;;;;;;41.28;21.90;;;6.60;99.90;;;;;;5074845;28;20242;-68
2021/12/26 09:01:58;;;;;;;36.38;21.13;;;6.60;99.90;;;;;;5074796;28;20203;-68
2021/12/26 09:04:25;;;;;;;32.72;19.35;;;6.70;99.90;;;;;;5074127;28;20209;-68
2021/12/26 09:06:52;;;;;;;37.55;20.33;;;6.90;99.90;;;;;;5074317;28;20203;-68
2021/12/26 09:09:19;;;;;;;33.58;20.05;;;7.00;99.90;;;;;;5074042;28;20763;-68
2021/12/26 09:11:46;;;;;;;33.58;20.05;;;7.00;99.90;;;;;;5074074;28;20198;-68
2021/12/26 09:14:15;;;;;;;29.27;19.80;;;7.10;99.90;;;;;;5074126;28;20202;-68
2021/12/26 09:16:41;;;;;;;33.25;19.90;;;7.20;99.90;;;;;;5074077;28;20205;-68
2021/12/26 09:19:09;;;;;;;33.00;19.95;;;7.20;99.90;;;;;;5074007;28;20202;-68
2021/12/26 09:21:36;;;;;;;33.40;20.85;;;7.20;99.90;;;;;;5074064;28;20209;-68
2021/12/26 09:24:04;;;;;;;36.53;20.83;;;7.30;99.90;;;;;;5074180;28;20205;-68
2021/12/26 09:26:31;;;;;;;31.77;19.98;;;7.20;99.90;;;;;;5073575;28;20228;-68
2021/12/26 09:28:58;;;;;;;37.97;21.70;;;7.00;99.90;;;;;;5073896;28;20209;-68
2021/12/26 09:31:27;;;;;;;32.53;20.65;;;7.10;99.90;;;;;;5073762;28;20297;-68
2021/12/26 09:33:54;;;;;;;35.92;21.00;;;7.10;99.90;;;;;;5073853;28;20231;-68
2021/12/26 09:36:21;;;;;;;35.10;21.00;;;7.30;99.90;;;;;;5073767;28;20696;-68
2021/12/26 09:38:47;;;;;;;25.58;17.50;;;7.40;99.90;;;;;;5073544;28;20205;-68
2021/12/26 09:41:14;;;;;;;32.15;19.60;;;7.60;99.90;;;;;;5073500;28;20215;-68
2021/12/26 09:43:42;;;;;;;31.50;19.20;;;7.60;99.90;;;;;;5073708;28;20230;-68
2021/12/26 09:46:09;;;;;;;28.38;17.30;;;7.80;99.90;;;;;;5073952;28;20313;-68
2021/12/26 09:48:37;;;;;;;29.75;18.67;;;7.90;99.90;;;;;;5074286;28;20202;-68
2021/12/26 09:51:04;;;;;;;27.10;18.23;;;8.00;99.90;;;;;;5074205;28;20281;-68
2021/12/26 09:53:37;;;;;;;27.42;17.63;;;8.10;99.90;;;;;;5073781;28;20238;-68
2021/12/26 09:56:06;;;;;;;30.33;18.75;;;8.00;99.90;;;;;;5073763;28;20223;-68
2021/12/26 09:58:33;;;;;;;27.67;18.15;;;8.00;99.90;;;;;;5073859;28;20199;-68
2021/12/26 10:00:59;;;;;;;28.05;19.13;;;7.80;99.90;;;;;;5073520;28;20293;-68
2021/12/26 10:03:33;;;;;;;30.98;19.67;;;7.70;99.90;;;;;;5073588;28;20202;-68
2021/12/26 10:06:10;;;;;;;35.40;19.52;;;7.80;99.90;;;;;;5073529;28;20309;-68
2021/12/26 10:08:53;;;;;;;31.05;19.30;;;7.80;99.90;;;;;;5073430;28;20290;-68
2021/12/26 10:11:22;;;;;;;31.65;19.95;;;7.80;99.90;;;;;;5073427;28;20217;-68
2021/12/26 10:13:51;;;;;;;30.02;18.92;;;7.70;99.90;;;;;;5073150;28;20715;-68
2021/12/26 10:16:22;;;;;;;29.75;19.95;;;7.80;99.90;;;;;;5072873;28;20222;-68
2021/12/26 10:18:50;;;;;;;32.35;20.92;;;7.70;99.90;;;;;;5073309;28;20207;-68
2021/12/26 10:21:34;;;;;;;32.20;19.50;;;7.70;99.90;;;;;;5073032;28;20657;-68
2021/12/26 10:24:05;;;;;;;32.72;20.83;;;7.60;99.90;;;;;;5073227;28;20285;-68
2021/12/26 10:26:34;;;;;;;29.92;18.88;;;7.70;99.90;;;;;;5073367;28;20219;-68
2021/12/26 10:29:22;;;;;;;28.08;18.95;;;7.70;99.90;;;;;;5073354;28;20293;-68
2021/12/26 10:32:06;;;;;;;33.35;20.15;;;7.80;99.90;;;;;;5073545;28;20187;-68
2021/12/26 10:34:37;;;;;;;32.13;19.35;;;7.70;99.90;;;;;;5073055;28;20198;-68
2021/12/26 10:37:08;;;;;;;29.90;19.50;;;7.80;99.90;;;;;;5073409;28;20199;-68
2021/12/26 10:39:36;;;;;;;30.58;19.33;;;7.80;99.90;;;;;;5073770;28;20211;-68
2021/12/26 10:42:06;;;;;;;26.25;17.92;;;8.10;99.90;;;;;;5073442;28;20274;-68
2021/12/26 10:44:37;;;;;;;25.70;17.60;;;8.10;99.90;;;;;;5073113;28;20728;-68
2021/12/26 10:47:09;;;;;;;24.42;17.60;;;8.20;99.90;;;;;;5073783;28;20612;-68
2021/12/26 10:49:39;;;;;;;25.65;17.70;;;8.20;99.90;;;;;;5073315;28;20187;-68
2021/12/26 10:52:18;;;;;;;24.13;17.60;;;8.20;99.90;;;;;;5076583;28;20290;-68
2021/12/26 10:54:53;;;;;;;22.38;15.90;;;8.30;99.90;;;;;;5076278;28;20238;-68
2021/12/26 10:57:24;;;;;;;23.52;16.35;;;8.30;99.90;;;;;;5076728;28;20195;-68
2021/12/26 11:00:07;;;;;;;22.38;16.20;;;8.40;99.90;;;;;;5076699;28;20210;-68
2021/12/26 11:02:35;;;;;;;18.77;13.82;;;8.40;99.90;;;;;;5076462;28;20285;-68
2021/12/26 11:05:07;;;;;;;22.67;15.15;;;8.30;99.90;;;;;;5076294;28;20227;-68
2021/12/26 11:07:45;;;;;;;21.33;14.85;;;8.30;99.90;;;;;;5076757;28;20599;-68
2021/12/26 11:10:15;;;;;;;22.83;14.82;;;8.50;99.90;;;;;;5077199;28;20191;-68
2021/12/26 11:12:45;;;;;;;19.65;14.60;;;8.70;99.90;;;;;;5077036;28;20229;-68
2021/12/26 11:15:13;;;;;;;19.15;14.40;;;8.90;99.90;;;;;;5076568;28;20223;-68
2021/12/26 11:17:44;;;;;;;17.00;13.75;;;8.90;99.90;;;;;;5076757;28;20214;-68
2021/12/26 11:20:19;;;;;;;17.30;13.48;;;9.00;99.90;;;;;;5076533;28;20195;-68
2021/12/26 11:22:47;;;;;;;17.08;13.25;;;9.10;99.90;;;;;;5076596;28;20198;-68
2021/12/26 11:25:14;;;;;;;16.05;13.10;;;9.20;99.90;;;;;;5076115;28;20792;-68
2021/12/26 11:27:41;;;;;;;16.65;12.57;;;9.20;99.90;;;;;;5076433;28;20207;-68
2021/12/26 11:30:10;;;;;;;15.50;11.90;;;9.30;99.90;;;;;;5076317;28;20199;-68
2021/12/26 11:32:38;;;;;;;14.00;12.13;;;9.50;99.90;;;;;;5076326;28;20246;-68
2021/12/26 11:35:07;;;;;;;13.90;12.13;;;9.50;99.90;;;;;;5076285;28;20318;-68
2021/12/26 11:37:36;;;;;;;15.07;12.95;;;9.50;99.90;;;;;;5076460;28;20301;-68
2021/12/26 11:40:07;;;;;;;12.65;10.80;;;9.60;99.90;;;;;;5076301;28;20206;-68
2021/12/26 11:43:28;;;;;;;14.52;12.40;;;9.70;99.90;;;;;;5076574;28;20191;-68
2021/12/26 11:46:02;;;;;;;14.57;12.20;;;9.70;99.90;;;;;;5076055;28;20223;-68
2021/12/26 11:49:08;;;;;;;13.60;11.80;;;9.80;99.90;;;;;;5076289;28;20206;-68
2021/12/26 11:51:53;;;;;;;15.57;12.65;;;9.90;99.90;;;;;;5067524;28;20238;-68
2021/12/26 11:54:51;;;;;;;14.32;12.27;;;10.00;99.90;;;;;;5075833;28;20681;-68
2021/12/26 11:57:52;;;;;;;13.82;12.00;;;10.00;99.90;;;;;;5076745;28;20269;-68
2021/12/26 12:00:25;;;;;;;14.50;11.88;;;10.10;99.90;;;;;;5051659;28;20216;-68
2021/12/26 12:02:53;;;;;;;18.73;13.18;;;10.10;99.90;;;;;;5075356;28;20238;-68
2021/12/26 12:05:22;;;;;;;12.60;11.20;;;10.10;99.90;;;;;;5075779;28;20233;-68
2021/12/26 12:08:00;;;;;;;14.40;11.90;;;10.10;99.90;;;;;;5075793;28;20207;-68
2021/12/26 12:10:46;;;;;;;14.68;13.10;;;10.10;99.90;;;;;;5075964;28;20213;-68
2021/12/26 12:13:31;;;;;;;13.27;11.88;;;10.10;99.90;;;;;;5075729;28;20297;-68
2021/12/26 12:16:01;;;;;;;14.85;11.95;;;10.20;99.90;;;;;;5075046;28;20232;-68
2021/12/26 12:18:30;;;;;;;13.10;11.30;;;10.20;99.90;;;;;;5075579;28;20685;-68
2021/12/26 12:21:08;;;;;;;14.18;12.68;;;10.30;99.90;;;;;;5075594;28;20199;-68
2021/12/26 12:23:36;;;;;;;14.25;12.77;;;10.20;99.90;;;;;;5075619;28;20556;-68
2021/12/26 12:26:03;;;;;;;13.55;12.15;;;10.20;99.90;;;;;;5075234;28;20223;-68
2021/12/26 12:28:33;;;;;;;14.57;12.57;;;10.30;99.90;;;;;;5075228;28;20298;-68
2021/12/26 12:31:27;;;;;;;15.25;12.10;;;10.20;99.90;;;;;;5075544;28;20195;-68
2021/12/26 12:34:02;;;;;;;14.90;12.20;;;10.10;99.90;;;;;;5039510;28;20230;-68
2021/12/26 12:36:32;;;;;;;13.95;12.45;;;10.10;99.90;;;;;;5074786;28;20232;-68
2021/12/26 12:39:16;;;;;;;13.35;11.55;;;10.10;99.90;;;;;;5075237;28;20206;-68
2021/12/26 12:41:44;;;;;;;14.38;11.65;;;10.10;99.90;;;;;;5075327;28;20210;-68
2021/12/26 12:44:32;;;;;;;13.27;11.65;;;10.10;99.90;;;;;;5074798;28;20206;-68
2021/12/26 12:47:03;;;;;;;13.20;11.15;;;10.20;99.90;;;;;;5075219;28;20555;-68